sensor_id;sensor_type;location;lat;lon;timestamp;temperature;humidity
44487;DHT22;30191;50.908;6.962;2023-11-21T00:00:16;10.90;99.90
44487;DHT22;30191;50.908;6.962;2023-11-21T00:02:42;10.90;99.90
44487;DHT22;30191;50.908;6.962;2023-11-21T00:05:09;10.90;99.90
44487;DHT22;30191;50.908;6.962;2023-11-21T00:07:36;10.90;99.90
44487;DHT22;30191;50.908;6.962;2023-11-21T00:10:03;10.90;99.90
44487;DHT22;30191;50.908;6.962;2023-11-21T00:12:30;10.90;99.90
44487;DHT22;30191;50.908;6.962;2023-11-21T00:14:57;10.90;99.90
44487;DHT22;30191;50.908;6.962;2023-11-21T00:17:23;10.80;99.90
44487;DHT22;30191;50.908;6.962;2023-11-21T00:19:48;10.80;99.90
44487;DHT22;30191;50.908;6.962;2023-11-21T00:22:14;10.80;99.90
44487;DHT22;30191;50.908;6.962;2023-11-21T00:24:41;10.80;99.90
44487;DHT22;30191;50.908;6.962;2023-11-21T00:27:07;10.80;99.90
44487;DHT22;30191;50.908;6.962;2023-11-21T00:29:32;10.80;99.90
44487;DHT22;30191;50.908;6.962;2023-11-21T00:31:58;10.80;99.90
44487;DHT22;30191;50.908;6.962;2023-11-21T00:34:24;10.90;99.90
44487;DHT22;30191;50.908;6.962;2023-11-21T00:36:49;10.80;99.90
44487;DHT22;30191;50.908;6.962;2023-11-21T00:39:15;10.80;99.90
44487;DHT22;30191;50.908;6.962;2023-11-21T00:41:41;10.80;99.90
44487;DHT22;30191;50.908;6.962;2023-11-21T00:44:07;10.80;99.90
44487;DHT22;30191;50.908;6.962;2023-11-21T00:46:33;10.80;99.90
44487;DHT22;30191;50.908;6.962;2023-11-21T00:48:58;10.80;99.90
44487;DHT22;30191;50.908;6.962;2023-11-21T00:51:24;10.80;99.90
44487;DHT22;30191;50.908;6.962;2023-11-21T00:53:50;10.80;99.90
44487;DHT22;30191;50.908;6.962;2023-11-21T00:56:16;10.80;99.90
44487;DHT22;30191;50.908;6.962;2023-11-21T00:58:42;10.70;99.90
44487;DHT22;30191;50.908;6.962;2023-11-21T01:01:15;10.70;99.90
44487;DHT22;30191;50.908;6.962;2023-11-21T01:03:41;10.60;99.90
44487;DHT22;30191;50.908;6.962;2023-11-21T01:06:07;10.70;99.90
44487;DHT22;30191;50.908;6.962;2023-11-21T01:08:34;10.60;99.90
44487;DHT22;30191;50.908;6.962;2023-11-21T01:11:00;10.60;99.90
44487;DHT22;30191;50.908;6.962;2023-11-21T01:13:25;10.60;99.90
44487;DHT22;30191;50.908;6.962;2023-11-21T01:15:55;10.60;99.90
44487;DHT22;30191;50.908;6.962;2023-11-21T01:18:21;10.60;99.90
44487;DHT22;30191;50.908;6.962;2023-11-21T01:20:47;10.60;99.90
44487;DHT22;30191;50.908;6.962;2023-11-21T01:23:13;10.50;99.90
44487;DHT22;30191;50.908;6.962;2023-11-21T01:25:39;10.60;99.90
44487;DHT22;30191;50.908;6.962;2023-11-21T01:28:05;10.60;99.90
44487;DHT22;30191;50.908;6.962;2023-11-21T01:30:31;10.50;99.90
44487;DHT22;30191;50.908;6.962;2023-11-21T01:32:58;10.50;99.90
44487;DHT22;30191;50.908;6.962;2023-11-21T01:35:23;10.50;99.90
44487;DHT22;30191;50.908;6.962;2023-11-21T01:37:52;10.60;99.90
44487;DHT22;30191;50.908;6.962;2023-11-21T01:40:19;10.60;99.90
44487;DHT22;30191;50.908;6.962;2023-11-21T01:42:46;10.60;99.90
44487;DHT22;30191;50.908;6.962;2023-11-21T01:45:13;10.60;99.90
44487;DHT22;30191;50.908;6.962;2023-11-21T01:47:41;10.50;99.90
44487;DHT22;30191;50.908;6.962;2023-11-21T01:50:08;10.50;99.90
44487;DHT22;30191;50.908;6.962;2023-11-21T01:52:35;10.50;99.90
44487;DHT22;30191;50.908;6.962;2023-11-21T01:55:01;10.50;99.90
44487;DHT22;30191;50.908;6.962;2023-11-21T01:57:28;10.40;99.90
44487;DHT22;30191;50.908;6.962;2023-11-21T01:59:55;10.40;99.90
44487;DHT22;30191;50.908;6.962;2023-11-21T02:02:21;10.50;99.90
44487;DHT22;30191;50.908;6.962;2023-11-21T02:04:47;10.50;99.90
44487;DHT22;30191;50.908;6.962;2023-11-21T02:07:12;10.50;99.90
44487;DHT22;30191;50.908;6.962;2023-11-21T02:09:38;10.50;99.90
44487;DHT22;30191;50.908;6.962;2023-11-21T02:12:07;10.50;99.90
44487;DHT22;30191;50.908;6.962;2023-11-21T02:14:36;10.40;99.90
44487;DHT22;30191;50.908;6.962;2023-11-21T02:17:02;10.40;99.90
44487;DHT22;30191;50.908;6.962;2023-11-21T02:19:29;10.40;99.90
44487;DHT22;30191;50.908;6.962;2023-11-21T02:21:57;10.50;99.90
44487;DHT22;30191;50.908;6.962;2023-11-21T02:24:28;10.40;99.90
44487;DHT22;30191;50.908;6.962;2023-11-21T02:26:54;10.40;99.90
44487;DHT22;30191;50.908;6.962;2023-11-21T02:29:21;10.40;99.90
44487;DHT22;30191;50.908;6.962;2023-11-21T02:31:54;10.40;99.90
44487;DHT22;30191;50.908;6.962;2023-11-21T02:34:21;10.30;99.90
44487;DHT22;30191;50.908;6.962;2023-11-21T02:36:47;10.30;99.90
44487;DHT22;30191;50.908;6.962;2023-11-21T02:39:15;10.30;99.90
44487;DHT22;30191;50.908;6.962;2023-11-21T02:41:47;10.30;99.90
44487;DHT22;30191;50.908;6.962;2023-11-21T02:44:13;10.30;99.90
44487;DHT22;30191;50.908;6.962;2023-11-21T02:46:38;10.30;99.90
44487;DHT22;30191;50.908;6.962;2023-11-21T02:49:06;10.30;99.90
44487;DHT22;30191;50.908;6.962;2023-11-21T02:51:32;10.20;99.90
44487;DHT22;30191;50.908;6.962;2023-11-21T02:53:58;10.20;99.90
44487;DHT22;30191;50.908;6.962;2023-11-21T02:56:25;10.20;99.90
44487;DHT22;30191;50.908;6.962;2023-11-21T02:58:52;10.20;99.90
44487;DHT22;30191;50.908;6.962;2023-11-21T03:01:17;10.30;99.90
44487;DHT22;30191;50.908;6.962;2023-11-21T03:03:43;10.30;99.90
44487;DHT22;30191;50.908;6.962;2023-11-21T03:06:09;10.30;99.90
44487;DHT22;30191;50.908;6.962;2023-11-21T03:08:35;10.30;99.90
44487;DHT22;30191;50.908;6.962;2023-11-21T03:11:01;10.30;99.90
44487;DHT22;30191;50.908;6.962;2023-11-21T03:13:30;10.40;99.90
44487;DHT22;30191;50.908;6.962;2023-11-21T03:15:55;10.40;99.90
44487;DHT22;30191;50.908;6.962;2023-11-21T03:18:21;10.40;99.90
44487;DHT22;30191;50.908;6.962;2023-11-21T03:20:51;10.30;99.90
44487;DHT22;30191;50.908;6.962;2023-11-21T03:23:17;10.30;99.90
44487;DHT22;30191;50.908;6.962;2023-11-21T03:25:43;10.40;99.90
44487;DHT22;30191;50.908;6.962;2023-11-21T03:28:09;10.30;99.90
44487;DHT22;30191;50.908;6.962;2023-11-21T03:30:35;10.40;99.90
44487;DHT22;30191;50.908;6.962;2023-11-21T03:33:00;10.30;99.90
44487;DHT22;30191;50.908;6.962;2023-11-21T03:35:26;10.30;99.90
44487;DHT22;30191;50.908;6.962;2023-11-21T03:37:52;10.30;99.90
44487;DHT22;30191;50.908;6.962;2023-11-21T03:40:18;10.30;99.90
44487;DHT22;30191;50.908;6.962;2023-11-21T03:42:43;10.30;99.90
44487;DHT22;30191;50.908;6.962;2023-11-21T03:45:09;10.20;99.90
44487;DHT22;30191;50.908;6.962;2023-11-21T03:47:35;10.30;99.90
44487;DHT22;30191;50.908;6.962;2023-11-21T03:50:01;10.20;99.90
44487;DHT22;30191;50.908;6.962;2023-11-21T03:52:26;10.20;99.90
44487;DHT22;30191;50.908;6.962;2023-11-21T03:54:54;10.20;99.90
44487;DHT22;30191;50.908;6.962;2023-11-21T03:57:21;10.20;99.90
44487;DHT22;30191;50.908;6.962;2023-11-21T03:59:47;10.10;99.90
44487;DHT22;30191;50.908;6.962;2023-11-21T04:02:12;10.10;99.90
44487;DHT22;30191;50.908;6.962;2023-11-21T04:04:38;10.10;99.90
44487;DHT22;30191;50.908;6.962;2023-11-21T04:07:05;10.10;99.90
44487;DHT22;30191;50.908;6.962;2023-11-21T04:09:31;10.10;99.90
44487;DHT22;30191;50.908;6.962;2023-11-21T04:11:56;10.10;99.90
44487;DHT22;30191;50.908;6.962;2023-11-21T04:14:22;10.10;99.90
44487;DHT22;30191;50.908;6.962;2023-11-21T04:16:48;10.10;99.90
44487;DHT22;30191;50.908;6.962;2023-11-21T04:19:14;10.10;99.90
44487;DHT22;30191;50.908;6.962;2023-11-21T04:21:41;10.10;99.90
44487;DHT22;30191;50.908;6.962;2023-11-21T04:24:07;10.10;99.90
44487;DHT22;30191;50.908;6.962;2023-11-21T04:26:33;10.00;99.90
44487;DHT22;30191;50.908;6.962;2023-11-21T04:28:59;10.00;99.90
44487;DHT22;30191;50.908;6.962;2023-11-21T04:31:24;10.10;99.90
44487;DHT22;30191;50.908;6.962;2023-11-21T04:33:50;10.10;99.90
44487;DHT22;30191;50.908;6.962;2023-11-21T04:36:15;10.10;99.90
44487;DHT22;30191;50.908;6.962;2023-11-21T04:38:41;10.10;99.90
44487;DHT22;30191;50.908;6.962;2023-11-21T04:41:07;10.00;99.90
44487;DHT22;30191;50.908;6.962;2023-11-21T04:43:33;10.10;99.90
44487;DHT22;30191;50.908;6.962;2023-11-21T04:45:59;10.00;99.90
44487;DHT22;30191;50.908;6.962;2023-11-21T04:48:25;10.00;99.90
44487;DHT22;30191;50.908;6.962;2023-11-21T04:50:51;10.00;99.90
44487;DHT22;30191;50.908;6.962;2023-11-21T04:53:17;10.00;99.90
44487;DHT22;30191;50.908;6.962;2023-11-21T04:55:43;10.00;99.90
44487;DHT22;30191;50.908;6.962;2023-11-21T04:58:09;10.00;99.90
44487;DHT22;30191;50.908;6.962;2023-11-21T05:00:35;10.00;99.90
44487;DHT22;30191;50.908;6.962;2023-11-21T05:03:02;10.00;99.90
44487;DHT22;30191;50.908;6.962;2023-11-21T05:05:29;10.00;99.90
44487;DHT22;30191;50.908;6.962;2023-11-21T05:07:55;10.00;99.90
44487;DHT22;30191;50.908;6.962;2023-11-21T05:10:21;10.00;99.90
44487;DHT22;30191;50.908;6.962;2023-11-21T05:12:48;10.00;99.90
44487;DHT22;30191;50.908;6.962;2023-11-21T05:15:16;9.90;99.90
44487;DHT22;30191;50.908;6.962;2023-11-21T05:17:43;10.00;99.90
44487;DHT22;30191;50.908;6.962;2023-11-21T05:20:12;10.00;99.90
44487;DHT22;30191;50.908;6.962;2023-11-21T05:22:39;10.00;99.90
44487;DHT22;30191;50.908;6.962;2023-11-21T05:25:06;10.00;99.90
44487;DHT22;30191;50.908;6.962;2023-11-21T05:27:33;10.00;99.90
44487;DHT22;30191;50.908;6.962;2023-11-21T05:30:03;10.00;99.90
44487;DHT22;30191;50.908;6.962;2023-11-21T05:32:32;10.00;99.90
44487;DHT22;30191;50.908;6.962;2023-11-21T05:34:58;10.10;99.90
44487;DHT22;30191;50.908;6.962;2023-11-21T05:37:24;10.00;99.90
44487;DHT22;30191;50.908;6.962;2023-11-21T05:39:53;10.10;99.90
44487;DHT22;30191;50.908;6.962;2023-11-21T05:42:19;10.10;99.90
44487;DHT22;30191;50.908;6.962;2023-11-21T05:44:46;10.10;99.90
44487;DHT22;30191;50.908;6.962;2023-11-21T05:47:12;10.00;99.90
44487;DHT22;30191;50.908;6.962;2023-11-21T05:49:39;10.10;99.90
44487;DHT22;30191;50.908;6.962;2023-11-21T05:52:04;10.10;99.90
44487;DHT22;30191;50.908;6.962;2023-11-21T05:54:31;10.00;99.90
44487;DHT22;30191;50.908;6.962;2023-11-21T05:56:56;10.10;99.90
44487;DHT22;30191;50.908;6.962;2023-11-21T05:59:23;10.10;99.90
44487;DHT22;30191;50.908;6.962;2023-11-21T06:01:48;10.10;99.90
44487;DHT22;30191;50.908;6.962;2023-11-21T06:04:14;10.10;99.90
44487;DHT22;30191;50.908;6.962;2023-11-21T06:06:40;10.10;99.90
44487;DHT22;30191;50.908;6.962;2023-11-21T06:09:05;10.20;99.90
44487;DHT22;30191;50.908;6.962;2023-11-21T06:11:34;10.20;99.90
44487;DHT22;30191;50.908;6.962;2023-11-21T06:13:59;10.20;99.90
44487;DHT22;30191;50.908;6.962;2023-11-21T06:16:25;10.20;99.90
44487;DHT22;30191;50.908;6.962;2023-11-21T06:18:51;10.20;99.90
44487;DHT22;30191;50.908;6.962;2023-11-21T06:21:16;10.20;99.90
44487;DHT22;30191;50.908;6.962;2023-11-21T06:23:43;10.20;99.90
44487;DHT22;30191;50.908;6.962;2023-11-21T06:26:09;10.30;99.90
44487;DHT22;30191;50.908;6.962;2023-11-21T06:28:35;10.30;99.90
44487;DHT22;30191;50.908;6.962;2023-11-21T06:31:02;10.40;99.90
44487;DHT22;30191;50.908;6.962;2023-11-21T06:33:32;10.30;99.90
44487;DHT22;30191;50.908;6.962;2023-11-21T06:35:57;10.30;99.90
44487;DHT22;30191;50.908;6.962;2023-11-21T06:38:24;10.30;99.90
44487;DHT22;30191;50.908;6.962;2023-11-21T06:40:49;10.30;99.90
44487;DHT22;30191;50.908;6.962;2023-11-21T06:43:15;10.30;99.90
44487;DHT22;30191;50.908;6.962;2023-11-21T06:45:41;10.30;99.90
44487;DHT22;30191;50.908;6.962;2023-11-21T06:48:07;10.30;99.90
44487;DHT22;30191;50.908;6.962;2023-11-21T06:50:32;10.20;99.90
44487;DHT22;30191;50.908;6.962;2023-11-21T06:52:58;10.20;99.90
44487;DHT22;30191;50.908;6.962;2023-11-21T06:55:24;10.20;99.90
44487;DHT22;30191;50.908;6.962;2023-11-21T06:57:49;10.10;99.90
44487;DHT22;30191;50.908;6.962;2023-11-21T07:00:17;10.10;99.90
44487;DHT22;30191;50.908;6.962;2023-11-21T07:02:43;10.10;99.90
44487;DHT22;30191;50.908;6.962;2023-11-21T07:05:09;10.20;99.90
44487;DHT22;30191;50.908;6.962;2023-11-21T07:07:35;10.20;99.90
44487;DHT22;30191;50.908;6.962;2023-11-21T07:10:02;10.30;99.90
44487;DHT22;30191;50.908;6.962;2023-11-21T07:12:30;10.30;99.90
44487;DHT22;30191;50.908;6.962;2023-11-21T07:14:57;10.30;99.90
44487;DHT22;30191;50.908;6.962;2023-11-21T07:17:23;10.30;99.90
44487;DHT22;30191;50.908;6.962;2023-11-21T07:19:49;10.10;99.90
44487;DHT22;30191;50.908;6.962;2023-11-21T07:22:15;10.10;99.90
44487;DHT22;30191;50.908;6.962;2023-11-21T07:24:49;10.10;99.90
44487;DHT22;30191;50.908;6.962;2023-11-21T07:27:16;10.20;99.90
44487;DHT22;30191;50.908;6.962;2023-11-21T07:29:42;10.20;99.90
44487;DHT22;30191;50.908;6.962;2023-11-21T07:32:07;10.20;99.90
44487;DHT22;30191;50.908;6.962;2023-11-21T07:34:35;10.20;99.90
44487;DHT22;30191;50.908;6.962;2023-11-21T07:37:01;10.10;99.90
44487;DHT22;30191;50.908;6.962;2023-11-21T07:39:28;10.20;99.90
44487;DHT22;30191;50.908;6.962;2023-11-21T07:41:53;10.10;99.90
44487;DHT22;30191;50.908;6.962;2023-11-21T07:44:19;10.10;99.90
44487;DHT22;30191;50.908;6.962;2023-11-21T07:46:45;10.10;99.90
44487;DHT22;30191;50.908;6.962;2023-11-21T07:49:12;10.20;99.90
44487;DHT22;30191;50.908;6.962;2023-11-21T07:51:41;10.20;99.90
44487;DHT22;30191;50.908;6.962;2023-11-21T07:54:07;10.30;99.90
44487;DHT22;30191;50.908;6.962;2023-11-21T07:56:33;10.30;99.90
44487;DHT22;30191;50.908;6.962;2023-11-21T07:58:58;10.30;99.90
44487;DHT22;30191;50.908;6.962;2023-11-21T08:01:24;10.30;99.90
44487;DHT22;30191;50.908;6.962;2023-11-21T08:03:50;10.30;99.90
44487;DHT22;30191;50.908;6.962;2023-11-21T08:06:18;10.30;99.90
44487;DHT22;30191;50.908;6.962;2023-11-21T08:08:43;10.30;99.90
44487;DHT22;30191;50.908;6.962;2023-11-21T08:11:09;10.30;99.90
44487;DHT22;30191;50.908;6.962;2023-11-21T08:13:36;10.40;99.90
44487;DHT22;30191;50.908;6.962;2023-11-21T08:16:01;10.40;99.90
44487;DHT22;30191;50.908;6.962;2023-11-21T08:18:28;10.50;99.90
44487;DHT22;30191;50.908;6.962;2023-11-21T08:20:57;10.50;99.90
44487;DHT22;30191;50.908;6.962;2023-11-21T08:23:23;10.60;99.90
44487;DHT22;30191;50.908;6.962;2023-11-21T08:25:52;10.60;99.90
44487;DHT22;30191;50.908;6.962;2023-11-21T08:28:19;10.60;99.90
44487;DHT22;30191;50.908;6.962;2023-11-21T08:30:45;10.60;99.90
44487;DHT22;30191;50.908;6.962;2023-11-21T08:33:10;10.60;99.90
44487;DHT22;30191;50.908;6.962;2023-11-21T08:35:39;10.60;99.90
44487;DHT22;30191;50.908;6.962;2023-11-21T08:38:05;10.60;99.90
44487;DHT22;30191;50.908;6.962;2023-11-21T08:40:31;10.70;99.90
44487;DHT22;30191;50.908;6.962;2023-11-21T08:42:57;10.70;99.90
44487;DHT22;30191;50.908;6.962;2023-11-21T08:45:24;10.70;99.90
44487;DHT22;30191;50.908;6.962;2023-11-21T08:47:51;10.70;99.90
44487;DHT22;30191;50.908;6.962;2023-11-21T08:50:17;10.70;99.90
44487;DHT22;30191;50.908;6.962;2023-11-21T08:52:44;10.70;99.90
44487;DHT22;30191;50.908;6.962;2023-11-21T08:55:11;10.70;99.90
44487;DHT22;30191;50.908;6.962;2023-11-21T08:57:39;10.70;99.90
44487;DHT22;30191;50.908;6.962;2023-11-21T09:00:07;10.70;99.90
44487;DHT22;30191;50.908;6.962;2023-11-21T09:02:37;10.70;99.90
44487;DHT22;30191;50.908;6.962;2023-11-21T09:05:06;10.80;99.90
44487;DHT22;30191;50.908;6.962;2023-11-21T09:07:32;10.70;99.90
44487;DHT22;30191;50.908;6.962;2023-11-21T09:09:58;10.80;99.90
44487;DHT22;30191;50.908;6.962;2023-11-21T09:12:24;10.80;99.90
44487;DHT22;30191;50.908;6.962;2023-11-21T09:14:52;10.80;99.90
44487;DHT22;30191;50.908;6.962;2023-11-21T09:17:18;10.80;99.90
44487;DHT22;30191;50.908;6.962;2023-11-21T09:19:44;10.80;99.90
44487;DHT22;30191;50.908;6.962;2023-11-21T09:22:17;10.90;99.90
44487;DHT22;30191;50.908;6.962;2023-11-21T09:24:42;10.80;99.90
44487;DHT22;30191;50.908;6.962;2023-11-21T09:27:08;10.80;99.90
44487;DHT22;30191;50.908;6.962;2023-11-21T09:29:35;10.80;99.90
44487;DHT22;30191;50.908;6.962;2023-11-21T09:32:01;10.80;99.90
44487;DHT22;30191;50.908;6.962;2023-11-21T09:34:27;10.90;99.90
44487;DHT22;30191;50.908;6.962;2023-11-21T09:36:52;10.80;99.90
44487;DHT22;30191;50.908;6.962;2023-11-21T09:39:19;10.80;99.90
44487;DHT22;30191;50.908;6.962;2023-11-21T09:41:52;10.80;99.90
44487;DHT22;30191;50.908;6.962;2023-11-21T09:44:51;10.80;99.90
44487;DHT22;30191;50.908;6.962;2023-11-21T09:47:21;10.70;99.90
44487;DHT22;30191;50.908;6.962;2023-11-21T09:49:48;10.70;99.90
44487;DHT22;30191;50.908;6.962;2023-11-21T09:52:24;10.80;99.90
44487;DHT22;30191;50.908;6.962;2023-11-21T09:54:54;10.80;99.90
44487;DHT22;30191;50.908;6.962;2023-11-21T09:57:20;10.70;99.90
44487;DHT22;30191;50.908;6.962;2023-11-21T09:59:51;10.80;99.90
44487;DHT22;30191;50.908;6.962;2023-11-21T10:02:23;10.80;99.90
44487;DHT22;30191;50.908;6.962;2023-11-21T10:04:51;10.80;99.90
44487;DHT22;30191;50.908;6.962;2023-11-21T10:07:19;10.80;99.90
44487;DHT22;30191;50.908;6.962;2023-11-21T10:09:47;10.70;99.90
44487;DHT22;30191;50.908;6.962;2023-11-21T10:12:15;10.80;99.90
44487;DHT22;30191;50.908;6.962;2023-11-21T10:14:42;10.70;99.90
44487;DHT22;30191;50.908;6.962;2023-11-21T10:17:10;10.80;99.90
44487;DHT22;30191;50.908;6.962;2023-11-21T10:19:39;10.80;99.90
44487;DHT22;30191;50.908;6.962;2023-11-21T10:22:05;10.80;99.90
44487;DHT22;30191;50.908;6.962;2023-11-21T10:24:32;10.90;99.90
44487;DHT22;30191;50.908;6.962;2023-11-21T10:26:58;10.80;99.90
44487;DHT22;30191;50.908;6.962;2023-11-21T10:29:24;10.80;99.90
44487;DHT22;30191;50.908;6.962;2023-11-21T10:31:52;10.90;99.90
44487;DHT22;30191;50.908;6.962;2023-11-21T10:34:20;10.90;99.90
44487;DHT22;30191;50.908;6.962;2023-11-21T10:36:47;10.80;99.90
44487;DHT22;30191;50.908;6.962;2023-11-21T10:39:21;10.90;99.90
44487;DHT22;30191;50.908;6.962;2023-11-21T10:41:49;10.90;99.90
44487;DHT22;30191;50.908;6.962;2023-11-21T10:44:17;10.80;99.90
44487;DHT22;30191;50.908;6.962;2023-11-21T10:46:50;10.80;99.90
44487;DHT22;30191;50.908;6.962;2023-11-21T10:49:26;10.90;99.90
44487;DHT22;30191;50.908;6.962;2023-11-21T10:51:53;10.90;99.90
44487;DHT22;30191;50.908;6.962;2023-11-21T10:54:23;10.90;99.90
44487;DHT22;30191;50.908;6.962;2023-11-21T10:56:50;10.90;99.90
44487;DHT22;30191;50.908;6.962;2023-11-21T10:59:17;10.90;99.90
44487;DHT22;30191;50.908;6.962;2023-11-21T11:01:45;10.90;99.90
44487;DHT22;30191;50.908;6.962;2023-11-21T11:04:12;10.90;99.90
44487;DHT22;30191;50.908;6.962;2023-11-21T11:06:43;10.90;99.90
44487;DHT22;30191;50.908;6.962;2023-11-21T11:09:12;10.90;99.90
44487;DHT22;30191;50.908;6.962;2023-11-21T11:11:41;10.90;99.90
44487;DHT22;30191;50.908;6.962;2023-11-21T11:14:11;10.80;99.90
44487;DHT22;30191;50.908;6.962;2023-11-21T11:16:39;10.90;99.90
44487;DHT22;30191;50.908;6.962;2023-11-21T11:19:09;11.00;99.90
44487;DHT22;30191;50.908;6.962;2023-11-21T11:35:52;11.00;99.90
44487;DHT22;30191;50.908;6.962;2023-11-21T11:38:23;11.00;99.90
44487;DHT22;30191;50.908;6.962;2023-11-21T11:40:53;11.00;99.90
44487;DHT22;30191;50.908;6.962;2023-11-21T11:43:26;11.00;99.90
44487;DHT22;30191;50.908;6.962;2023-11-21T11:45:56;11.00;99.90
44487;DHT22;30191;50.908;6.962;2023-11-21T11:48:22;11.00;99.90
44487;DHT22;30191;50.908;6.962;2023-11-21T11:51:13;11.00;99.90
44487;DHT22;30191;50.908;6.962;2023-11-21T11:53:47;11.10;99.90
44487;DHT22;30191;50.908;6.962;2023-11-21T11:56:29;11.00;99.90
44487;DHT22;30191;50.908;6.962;2023-11-21T11:58:58;11.00;99.90
44487;DHT22;30191;50.908;6.962;2023-11-21T12:01:26;11.00;99.90
44487;DHT22;30191;50.908;6.962;2023-11-21T12:06:36;11.00;99.90
44487;DHT22;30191;50.908;6.962;2023-11-21T12:09:02;11.10;99.90
44487;DHT22;30191;50.908;6.962;2023-11-21T12:11:32;11.10;99.90
44487;DHT22;30191;50.908;6.962;2023-11-21T12:13:58;11.20;99.90
44487;DHT22;30191;50.908;6.962;2023-11-21T12:16:25;11.20;99.90
44487;DHT22;30191;50.908;6.962;2023-11-21T12:18:55;11.20;99.90
44487;DHT22;30191;50.908;6.962;2023-11-21T12:21:22;11.20;99.90
44487;DHT22;30191;50.908;6.962;2023-11-21T12:23:48;11.10;99.90
44487;DHT22;30191;50.908;6.962;2023-11-21T12:26:13;11.10;99.90
44487;DHT22;30191;50.908;6.962;2023-11-21T12:28:39;11.10;99.90
44487;DHT22;30191;50.908;6.962;2023-11-21T12:31:06;11.00;99.90
44487;DHT22;30191;50.908;6.962;2023-11-21T12:33:33;11.10;99.90
44487;DHT22;30191;50.908;6.962;2023-11-21T12:35:59;11.10;99.90
44487;DHT22;30191;50.908;6.962;2023-11-21T12:38:24;11.00;99.90
44487;DHT22;30191;50.908;6.962;2023-11-21T12:40:51;11.00;99.90
44487;DHT22;30191;50.908;6.962;2023-11-21T12:43:17;11.00;99.90
44487;DHT22;30191;50.908;6.962;2023-11-21T12:45:43;11.00;99.90
44487;DHT22;30191;50.908;6.962;2023-11-21T12:48:09;11.00;99.90
44487;DHT22;30191;50.908;6.962;2023-11-21T12:50:37;11.00;99.90
44487;DHT22;30191;50.908;6.962;2023-11-21T12:53:04;11.00;99.90
44487;DHT22;30191;50.908;6.962;2023-11-21T12:55:32;11.00;99.90
44487;DHT22;30191;50.908;6.962;2023-11-21T12:57:59;11.00;99.90
44487;DHT22;30191;50.908;6.962;2023-11-21T13:00:34;11.10;99.90
44487;DHT22;30191;50.908;6.962;2023-11-21T13:03:04;11.00;99.90
44487;DHT22;30191;50.908;6.962;2023-11-21T13:05:40;11.00;99.90
44487;DHT22;30191;50.908;6.962;2023-11-21T13:08:10;11.10;99.90
44487;DHT22;30191;50.908;6.962;2023-11-21T13:10:43;11.00;99.90
44487;DHT22;30191;50.908;6.962;2023-11-21T13:13:12;11.10;99.90
44487;DHT22;30191;50.908;6.962;2023-11-21T13:15:49;11.00;99.90
44487;DHT22;30191;50.908;6.962;2023-11-21T13:18:15;11.00;99.90
44487;DHT22;30191;50.908;6.962;2023-11-21T13:20:42;11.00;99.90
44487;DHT22;30191;50.908;6.962;2023-11-21T13:23:10;11.00;99.90
44487;DHT22;30191;50.908;6.962;2023-11-21T13:25:38;11.00;99.90
44487;DHT22;30191;50.908;6.962;2023-11-21T13:28:06;11.00;99.90
44487;DHT22;30191;50.908;6.962;2023-11-21T13:30:33;11.00;99.90
44487;DHT22;30191;50.908;6.962;2023-11-21T13:33:03;11.10;99.90
44487;DHT22;30191;50.908;6.962;2023-11-21T13:35:32;11.10;99.90
44487;DHT22;30191;50.908;6.962;2023-11-21T13:38:08;11.20;99.90
44487;DHT22;30191;50.908;6.962;2023-11-21T13:40:36;11.10;99.90
44487;DHT22;30191;50.908;6.962;2023-11-21T13:43:15;11.20;99.90
44487;DHT22;30191;50.908;6.962;2023-11-21T13:45:42;11.10;99.90
44487;DHT22;30191;50.908;6.962;2023-11-21T13:48:10;11.10;99.90
44487;DHT22;30191;50.908;6.962;2023-11-21T13:50:36;11.20;99.90
44487;DHT22;30191;50.908;6.962;2023-11-21T13:53:03;11.20;99.90
44487;DHT22;30191;50.908;6.962;2023-11-21T13:55:44;11.20;99.90
44487;DHT22;30191;50.908;6.962;2023-11-21T13:58:11;11.20;99.90
44487;DHT22;30191;50.908;6.962;2023-11-21T14:00:42;11.20;99.90
44487;DHT22;30191;50.908;6.962;2023-11-21T14:03:14;11.20;99.90
44487;DHT22;30191;50.908;6.962;2023-11-21T14:05:46;11.10;99.90
44487;DHT22;30191;50.908;6.962;2023-11-21T14:08:13;11.10;99.90
44487;DHT22;30191;50.908;6.962;2023-11-21T14:10:45;11.10;99.90
44487;DHT22;30191;50.908;6.962;2023-11-21T14:13:18;11.10;99.90
44487;DHT22;30191;50.908;6.962;2023-11-21T14:15:45;11.10;99.90
44487;DHT22;30191;50.908;6.962;2023-11-21T14:18:12;11.10;99.90
44487;DHT22;30191;50.908;6.962;2023-11-21T14:20:43;11.20;99.90
44487;DHT22;30191;50.908;6.962;2023-11-21T14:23:10;11.20;99.90
44487;DHT22;30191;50.908;6.962;2023-11-21T14:25:37;11.20;99.90
44487;DHT22;30191;50.908;6.962;2023-11-21T14:28:05;11.20;99.90
44487;DHT22;30191;50.908;6.962;2023-11-21T14:30:34;11.30;99.90
44487;DHT22;30191;50.908;6.962;2023-11-21T14:33:02;11.20;99.90
44487;DHT22;30191;50.908;6.962;2023-11-21T14:35:28;11.20;99.90
44487;DHT22;30191;50.908;6.962;2023-11-21T14:38:00;11.30;99.90
44487;DHT22;30191;50.908;6.962;2023-11-21T14:40:28;11.30;99.90
44487;DHT22;30191;50.908;6.962;2023-11-21T14:42:59;11.30;99.90
44487;DHT22;30191;50.908;6.962;2023-11-21T14:45:25;11.30;99.90
44487;DHT22;30191;50.908;6.962;2023-11-21T14:47:51;11.30;99.90
44487;DHT22;30191;50.908;6.962;2023-11-21T14:50:36;11.30;99.90
44487;DHT22;30191;50.908;6.962;2023-11-21T14:53:11;11.20;99.90
44487;DHT22;30191;50.908;6.962;2023-11-21T14:55:39;11.20;99.90
44487;DHT22;30191;50.908;6.962;2023-11-21T14:58:17;11.20;99.90
44487;DHT22;30191;50.908;6.962;2023-11-21T15:00:57;11.20;99.90
44487;DHT22;30191;50.908;6.962;2023-11-21T15:03:27;11.20;99.90
44487;DHT22;30191;50.908;6.962;2023-11-21T15:06:03;11.20;99.90
44487;DHT22;30191;50.908;6.962;2023-11-21T15:08:54;11.20;99.90
44487;DHT22;30191;50.908;6.962;2023-11-21T15:11:42;11.20;99.90
44487;DHT22;30191;50.908;6.962;2023-11-21T15:14:09;11.20;99.90
44487;DHT22;30191;50.908;6.962;2023-11-21T15:16:36;11.20;99.90
44487;DHT22;30191;50.908;6.962;2023-11-21T15:19:08;11.20;99.90
44487;DHT22;30191;50.908;6.962;2023-11-21T15:21:36;11.20;99.90
44487;DHT22;30191;50.908;6.962;2023-11-21T15:24:02;11.20;99.90
44487;DHT22;30191;50.908;6.962;2023-11-21T15:26:28;11.20;99.90
44487;DHT22;30191;50.908;6.962;2023-11-21T15:28:54;11.20;99.90
44487;DHT22;30191;50.908;6.962;2023-11-21T15:31:20;11.20;99.90
44487;DHT22;30191;50.908;6.962;2023-11-21T15:33:51;11.20;99.90
44487;DHT22;30191;50.908;6.962;2023-11-21T15:36:17;11.20;99.90
44487;DHT22;30191;50.908;6.962;2023-11-21T15:38:43;11.10;99.90
44487;DHT22;30191;50.908;6.962;2023-11-21T15:41:09;11.10;99.90
44487;DHT22;30191;50.908;6.962;2023-11-21T15:43:37;11.10;99.90
44487;DHT22;30191;50.908;6.962;2023-11-21T15:46:02;11.10;99.90
44487;DHT22;30191;50.908;6.962;2023-11-21T15:48:33;11.10;99.90